Time;durP1;ratioP1;P1;durP2;ratioP2;P2;SDS_P1;SDS_P2;PMS_P1;PMS_P2;Temp;Humidity;BMP_temperature;BMP_pressure;BME280_temperature;BME280_humidity;BME280_pressure;Samples;Min_cycle;Max_cycle;Signal;HPM_P1;HPM_P2
2022/01/23 00:01:50;;;;;;;7.60;4.70;;;6.50;99.90;;;;;;5019154;28;20195;-83
2022/01/23 00:04:17;;;;;;;7.33;4.60;;;6.60;99.90;;;;;;5028393;28;20915;-76
2022/01/23 00:06:47;;;;;;;7.30;4.77;;;6.60;99.90;;;;;;5028377;28;20307;-76
2022/01/23 00:09:15;;;;;;;9.27;4.77;;;6.60;99.90;;;;;;5029584;28;20193;-75
2022/01/23 00:11:48;;;;;;;8.70;5.27;;;6.60;99.90;;;;;;4997140;28;20618;-80
2022/01/23 00:19:44;;;;;;;7.27;4.57;;;6.60;99.90;;;;;;5014856;28;20253;-75
2022/01/23 00:22:11;;;;;;;8.97;5.00;;;6.60;99.90;;;;;;5029773;28;20194;-76
2022/01/23 00:30:22;;;;;;;7.60;4.40;;;6.70;99.90;;;;;;5015729;28;20247;-81
2022/01/23 00:32:49;;;;;;;7.93;5.13;;;6.70;99.90;;;;;;5014039;28;20244;-77
2022/01/23 00:35:15;;;;;;;7.03;4.10;;;6.70;99.90;;;;;;5029460;28;20557;-76
2022/01/23 00:37:41;;;;;;;6.83;4.30;;;6.70;99.90;;;;;;5031066;28;20174;-76
2022/01/23 00:40:08;;;;;;;5.63;4.10;;;6.70;99.90;;;;;;5013609;28;20178;-81
2022/01/23 00:42:34;;;;;;;5.10;3.70;;;6.70;99.90;;;;;;5028942;28;20301;-82
2022/01/23 00:45:19;;;;;;;6.03;4.10;;;6.70;99.90;;;;;;5029181;28;20174;-81
2022/01/23 00:47:45;;;;;;;7.30;4.23;;;6.70;99.90;;;;;;5029545;28;20664;-75
2022/01/23 00:50:11;;;;;;;6.73;4.90;;;6.70;99.90;;;;;;5029206;28;20176;-75
2022/01/23 00:52:38;;;;;;;9.20;4.73;;;6.70;99.90;;;;;;5033365;28;20520;-82
2022/01/23 00:55:04;;;;;;;7.90;4.33;;;6.70;99.90;;;;;;5016064;28;20205;-75
2022/01/23 00:57:33;;;;;;;6.47;4.20;;;6.70;99.90;;;;;;5032351;28;20182;-75
2022/01/23 00:59:59;;;;;;;7.20;4.20;;;6.70;99.90;;;;;;5032543;28;20178;-74
2022/01/23 01:02:25;;;;;;;7.17;4.63;;;6.70;99.90;;;;;;5032791;28;20243;-77
2022/01/23 01:04:51;;;;;;;6.77;4.40;;;6.70;99.90;;;;;;5032823;28;20579;-75
2022/01/23 01:07:17;;;;;;;9.07;5.80;;;6.70;99.90;;;;;;5016486;28;20697;-75
2022/01/23 01:09:48;;;;;;;5.77;4.30;;;6.60;99.90;;;;;;5016137;28;20209;-80
2022/01/23 01:12:19;;;;;;;5.90;4.27;;;6.70;99.90;;;;;;5032246;28;20169;-81
2022/01/23 01:33:40;;;;;;;7.03;5.03;;;6.70;99.90;;;;;;5031686;28;20187;-76
2022/01/23 01:38:45;;;;;;;7.70;4.93;;;6.70;99.90;;;;;;5033523;28;20174;-81
2022/01/23 01:41:12;;;;;;;9.63;5.47;;;6.70;99.90;;;;;;5020096;28;20187;-75
2022/01/23 01:43:38;;;;;;;7.17;5.23;;;6.70;99.90;;;;;;5049287;28;20196;-76
2022/01/23 01:46:04;;;;;;;9.97;5.97;;;6.70;99.90;;;;;;5034332;28;20238;-79
2022/01/23 01:48:30;;;;;;;8.87;5.63;;;6.60;99.90;;;;;;5052598;28;20185;-75
2022/01/23 01:50:56;;;;;;;11.50;5.23;;;6.70;99.90;;;;;;5034724;28;20188;-79
2022/01/23 01:53:23;;;;;;;8.23;5.23;;;6.60;99.90;;;;;;5051188;28;20294;-81
2022/01/23 01:55:53;;;;;;;8.83;5.43;;;6.60;99.90;;;;;;5052539;28;20185;-81
2022/01/23 02:55:39;;;;;;;9.63;5.67;;;6.50;99.90;;;;;;5045965;28;20252;-81
2022/01/23 02:58:10;;;;;;;8.77;5.37;;;6.60;99.90;;;;;;5050564;28;20675;-81
2022/01/23 03:00:48;;;;;;;9.40;6.13;;;6.60;99.90;;;;;;5049647;28;20230;-76
2022/01/23 03:03:21;;;;;;;11.00;5.70;;;6.50;99.90;;;;;;5050099;28;20207;-75
2022/01/23 03:06:09;;;;;;;8.93;5.77;;;6.30;99.90;;;;;;5051416;28;20226;-81
2022/01/23 03:33:32;;;;;;;9.93;6.33;;;6.20;99.90;;;;;;5015561;28;20190;-81
2022/01/23 03:35:58;;;;;;;8.87;6.30;;;6.30;99.90;;;;;;5031240;28;20193;-80
2022/01/23 03:38:23;;;;;;;9.53;6.53;;;6.10;99.90;;;;;;5030056;28;20562;-80
2022/01/23 03:40:49;;;;;;;10.80;6.47;;;6.20;99.90;;;;;;5029535;28;20178;-74
2022/01/23 03:43:21;;;;;;;12.70;6.60;;;6.40;99.90;;;;;;4996580;28;20206;-77
2022/01/23 03:51:03;;;;;;;10.30;6.63;;;6.60;99.90;;;;;;5050578;28;20244;-75
2022/01/23 03:53:29;;;;;;;11.87;7.13;;;6.60;99.90;;;;;;5050416;28;20252;-79
2022/01/23 03:55:55;;;;;;;13.00;7.23;;;6.60;99.90;;;;;;5032718;28;20188;-81
2022/01/23 03:58:20;;;;;;;13.33;6.77;;;6.60;99.90;;;;;;5049363;28;20189;-75
2022/01/23 04:00:47;;;;;;;10.50;6.97;;;6.50;99.90;;;;;;5049266;28;20196;-82
2022/01/23 04:03:15;;;;;;;10.97;6.90;;;6.50;99.90;;;;;;5058343;28;20203;-80
2022/01/23 04:05:40;;;;;;;10.47;6.83;;;6.20;99.90;;;;;;5068828;28;20176;-76
2022/01/23 04:08:06;;;;;;;12.57;6.97;;;6.40;99.90;;;;;;5049220;28;20255;-75
2022/01/23 04:10:32;;;;;;;11.67;7.67;;;6.50;99.90;;;;;;5028588;28;20220;-80
2022/01/23 04:13:11;;;;;;;12.93;7.20;;;6.50;99.90;;;;;;5030072;28;20182;-79
2022/01/23 05:04:16;;;;;;;11.57;6.50;;;6.60;99.90;;;;;;5032899;28;20565;-80
2022/01/23 05:06:45;;;;;;;12.50;7.17;;;6.60;99.90;;;;;;5017112;28;20181;-77
2022/01/23 05:09:11;;;;;;;13.40;7.80;;;6.50;99.90;;;;;;5016293;28;20353;-80
2022/01/23 05:11:44;;;;;;;13.03;7.57;;;6.60;99.90;;;;;;5032447;28;20577;-76
2022/01/23 05:14:10;;;;;;;11.23;7.33;;;6.60;99.90;;;;;;5034261;28;20264;-76
2022/01/23 05:16:36;;;;;;;13.77;7.97;;;6.60;99.90;;;;;;5032257;28;20265;-77
2022/01/23 05:19:04;;;;;;;10.63;7.30;;;6.70;99.90;;;;;;5032040;28;20697;-79
2022/01/23 05:21:52;;;;;;;11.20;7.33;;;6.60;99.90;;;;;;5015615;28;20189;-75
2022/01/23 05:24:24;;;;;;;11.93;7.53;;;6.60;99.90;;;;;;5034241;28;20205;-76
2022/01/23 05:26:49;;;;;;;13.60;7.97;;;6.50;99.90;;;;;;5033481;28;20182;-75
2022/01/23 05:29:15;;;;;;;12.77;7.40;;;6.50;99.90;;;;;;5042737;28;20166;-75
2022/01/23 05:31:42;;;;;;;12.10;6.90;;;6.60;99.90;;;;;;5034818;28;20660;-81
2022/01/23 05:34:07;;;;;;;14.13;7.80;;;6.60;99.90;;;;;;5051810;28;20184;-80
2022/01/23 05:36:33;;;;;;;16.67;8.37;;;6.70;99.90;;;;;;5018456;28;20562;-76
2022/01/23 05:39:00;;;;;;;15.97;8.07;;;6.50;99.90;;;;;;5051792;28;20211;-81
2022/01/23 05:41:26;;;;;;;12.50;8.03;;;6.50;99.90;;;;;;5051113;28;20177;-76
2022/01/23 05:43:53;;;;;;;12.47;7.30;;;6.50;99.90;;;;;;5051649;28;20205;-80
2022/01/23 05:46:18;;;;;;;13.00;7.50;;;6.70;99.90;;;;;;5052778;28;20230;-76
2022/01/23 05:48:44;;;;;;;15.80;8.37;;;6.60;99.90;;;;;;5052550;28;20173;-78
2022/01/23 05:51:13;;;;;;;12.10;7.57;;;6.50;99.90;;;;;;5053837;28;20181;-75
2022/01/23 05:53:39;;;;;;;13.60;8.00;;;6.60;99.90;;;;;;5035991;28;20174;-81
2022/01/23 05:56:05;;;;;;;14.37;8.10;;;6.60;99.90;;;;;;5053523;28;20169;-80
2022/01/23 05:58:31;;;;;;;11.67;7.47;;;6.60;99.90;;;;;;5034443;28;20319;-75
2022/01/23 06:00:57;;;;;;;15.43;7.93;;;6.60;99.90;;;;;;5052082;28;20570;-75
2022/01/23 06:03:24;;;;;;;13.10;7.90;;;6.50;99.90;;;;;;5038091;28;20337;-75
2022/01/23 06:05:50;;;;;;;14.00;8.63;;;6.50;99.90;;;;;;5020119;28;20184;-79
2022/01/23 06:08:16;;;;;;;13.80;8.50;;;6.30;99.90;;;;;;5069204;28;20160;-79
2022/01/23 06:10:56;;;;;;;12.13;7.80;;;6.20;99.90;;;;;;5068169;28;20826;-75
2022/01/23 06:13:23;;;;;;;13.00;7.77;;;6.40;99.90;;;;;;5070104;28;20180;-76
2022/01/23 06:15:49;;;;;;;12.37;7.77;;;6.50;99.90;;;;;;5051952;28;20189;-80
2022/01/23 06:18:15;;;;;;;14.00;7.97;;;6.80;99.90;;;;;;5052785;28;20722;-81
2022/01/23 06:20:41;;;;;;;12.70;7.73;;;6.60;99.90;;;;;;5068971;28;20256;-80
2022/01/23 06:23:07;;;;;;;14.97;8.07;;;6.60;99.90;;;;;;5052819;28;20212;-76
2022/01/23 06:25:35;;;;;;;12.90;7.73;;;6.60;99.90;;;;;;5070884;28;20169;-81
2022/01/23 06:28:05;;;;;;;12.97;7.90;;;6.30;99.90;;;;;;5071221;28;20229;-75
2022/01/23 06:30:34;;;;;;;13.37;8.30;;;6.40;99.90;;;;;;5032440;28;20174;-77
2022/01/23 06:33:00;;;;;;;12.63;7.70;;;6.50;99.90;;;;;;5047510;28;20174;-76
2022/01/23 06:35:28;;;;;;;13.60;8.43;;;6.50;99.90;;;;;;5031094;28;20199;-75
2022/01/23 06:37:54;;;;;;;16.97;8.83;;;6.60;99.90;;;;;;5030799;28;20173;-76
2022/01/23 06:40:20;;;;;;;15.40;8.40;;;6.60;99.90;;;;;;5014479;28;20680;-76
2022/01/23 06:42:46;;;;;;;15.20;8.27;;;6.70;99.90;;;;;;5031749;28;20165;-74
2022/01/23 06:45:12;;;;;;;14.47;8.53;;;6.60;99.90;;;;;;5035381;28;20173;-76
2022/01/23 06:47:39;;;;;;;14.47;7.87;;;6.60;99.90;;;;;;5049393;28;20637;-81
2022/01/23 06:50:05;;;;;;;17.27;9.40;;;6.60;99.90;;;;;;5049876;28;20176;-75
2022/01/23 06:52:31;;;;;;;15.13;8.67;;;6.60;99.90;;;;;;5050036;28;20184;-80
2022/01/23 06:54:56;;;;;;;14.57;8.97;;;6.70;99.90;;;;;;5050386;28;20181;-82
2022/01/23 06:57:22;;;;;;;12.90;8.40;;;6.70;99.90;;;;;;5051360;28;20181;-75
2022/01/23 06:59:48;;;;;;;14.23;8.63;;;6.60;99.90;;;;;;5049904;28;20181;-76
2022/01/23 07:02:15;;;;;;;13.50;8.30;;;6.60;99.90;;;;;;5033903;28;20185;-76
2022/01/23 07:04:40;;;;;;;14.17;7.73;;;6.60;99.90;;;;;;5050195;28;20192;-80
2022/01/23 07:07:07;;;;;;;16.37;8.47;;;6.60;99.90;;;;;;5017631;28;20504;-80
2022/01/23 07:09:33;;;;;;;12.50;7.83;;;6.60;99.90;;;;;;5033470;28;20170;-75
2022/01/23 07:11:59;;;;;;;17.47;8.70;;;6.50;99.90;;;;;;5049584;28;20184;-76
2022/01/23 07:14:25;;;;;;;12.97;7.67;;;6.60;99.90;;;;;;5050265;28;20547;-75
2022/01/23 07:16:51;;;;;;;15.47;8.30;;;6.50;99.90;;;;;;5049430;28;20197;-80
2022/01/23 07:19:17;;;;;;;14.17;8.83;;;6.50;99.90;;;;;;5051021;28;20170;-80
2022/01/23 07:21:42;;;;;;;16.73;9.33;;;6.40;99.90;;;;;;5032936;28;20177;-80
2022/01/23 07:24:09;;;;;;;20.37;9.50;;;6.40;99.90;;;;;;5049829;28;20555;-80
2022/01/23 07:26:35;;;;;;;15.60;8.97;;;6.40;99.90;;;;;;5049635;28;20193;-79
2022/01/23 07:29:04;;;;;;;14.93;8.90;;;6.40;99.90;;;;;;5050643;28;20177;-79
2022/01/23 07:34:04;;;;;;;14.37;8.40;;;6.50;99.90;;;;;;5049675;28;20169;-75
2022/01/23 07:36:30;;;;;;;14.87;8.73;;;6.60;99.90;;;;;;5039474;28;20759;-79
2022/01/23 07:38:56;;;;;;;16.10;8.47;;;6.60;99.90;;;;;;4996691;28;20174;-81
2022/01/23 07:41:22;;;;;;;16.70;9.17;;;6.60;99.90;;;;;;5013511;28;20185;-80
2022/01/23 07:43:48;;;;;;;17.53;9.03;;;6.60;99.90;;;;;;5029893;28;20224;-79
2022/01/23 07:46:14;;;;;;;16.20;9.53;;;6.70;99.90;;;;;;5043997;28;20682;-76
2022/01/23 07:48:40;;;;;;;14.50;8.87;;;6.60;99.90;;;;;;5050704;28;20173;-75
2022/01/23 07:51:06;;;;;;;18.27;9.57;;;6.60;99.90;;;;;;5013194;28;20177;-75
2022/01/23 07:53:31;;;;;;;16.87;9.97;;;6.60;99.90;;;;;;5012779;28;20603;-79
2022/01/23 07:55:57;;;;;;;14.87;9.97;;;6.70;99.90;;;;;;5030800;28;20174;-76
2022/01/23 07:58:23;;;;;;;14.37;9.20;;;6.70;99.90;;;;;;5012641;28;20193;-81
2022/01/23 08:00:50;;;;;;;14.23;8.77;;;6.70;99.90;;;;;;5032970;28;20184;-74
2022/01/23 08:03:16;;;;;;;14.13;9.20;;;6.70;99.90;;;;;;5057828;28;20228;-80
2022/01/23 08:05:45;;;;;;;15.30;9.97;;;6.70;99.90;;;;;;5057092;28;20200;-80
2022/01/23 08:08:11;;;;;;;13.80;8.50;;;6.70;99.90;;;;;;5055684;28;20640;-74
2022/01/23 08:10:38;;;;;;;13.33;8.70;;;6.70;99.90;;;;;;5073262;28;20165;-75
2022/01/23 08:13:05;;;;;;;13.37;9.20;;;6.70;99.90;;;;;;5074167;28;20168;-75
2022/01/23 08:15:34;;;;;;;18.20;10.33;;;6.80;99.90;;;;;;5073291;28;20566;-80
2022/01/23 08:18:05;;;;;;;17.50;9.20;;;6.80;99.90;;;;;;5073337;28;20165;-80
2022/01/23 08:20:33;;;;;;;16.07;9.10;;;6.80;99.90;;;;;;5056643;28;20572;-80
2022/01/23 08:23:01;;;;;;;14.87;9.50;;;6.80;99.90;;;;;;5056555;28;20251;-80
2022/01/23 08:25:29;;;;;;;16.30;9.50;;;6.70;99.90;;;;;;5072889;28;20579;-74
2022/01/23 08:27:55;;;;;;;18.37;11.03;;;6.60;99.90;;;;;;5074393;28;20523;-79
2022/01/23 08:30:22;;;;;;;17.07;9.57;;;6.70;99.90;;;;;;5019081;28;20178;-80
2022/01/23 08:32:48;;;;;;;18.40;10.43;;;6.50;99.90;;;;;;5018336;28;20311;-76
2022/01/23 08:35:15;;;;;;;18.63;10.43;;;6.60;99.90;;;;;;5035966;28;20268;-79
2022/01/23 08:37:40;;;;;;;17.63;9.87;;;6.80;99.90;;;;;;5052545;28;20180;-74
2022/01/23 08:40:17;;;;;;;19.00;9.90;;;6.70;99.90;;;;;;5036277;28;20840;-76
2022/01/23 08:42:42;;;;;;;16.80;9.67;;;6.60;99.90;;;;;;5052885;28;20622;-81
2022/01/23 08:45:08;;;;;;;15.93;9.70;;;6.70;99.90;;;;;;5052149;28;20273;-75
2022/01/23 08:47:34;;;;;;;17.13;9.87;;;6.80;99.90;;;;;;5052840;28;20655;-77
2022/01/23 08:50:00;;;;;;;16.07;9.57;;;6.80;99.90;;;;;;5052663;28;20173;-75
2022/01/23 08:52:26;;;;;;;17.90;10.10;;;6.90;99.90;;;;;;5035901;28;20311;-76
2022/01/23 08:54:56;;;;;;;17.23;9.40;;;6.90;99.90;;;;;;5019487;28;20252;-76
2022/01/23 08:57:26;;;;;;;17.93;10.07;;;7.00;99.90;;;;;;5035884;28;20173;-76
2022/01/23 08:59:52;;;;;;;16.77;9.60;;;7.10;99.90;;;;;;5051636;28;20177;-79
2022/01/23 09:02:19;;;;;;;18.40;10.40;;;6.90;99.90;;;;;;5052234;28;20624;-75
2022/01/23 09:04:46;;;;;;;18.13;9.90;;;6.90;99.90;;;;;;5050955;28;20237;-80
2022/01/23 09:07:13;;;;;;;16.33;10.30;;;7.20;99.90;;;;;;5034845;28;20183;-80
2022/01/23 09:09:40;;;;;;;14.37;9.47;;;7.40;99.90;;;;;;5052535;28;20173;-76
2022/01/23 09:14:41;;;;;;;16.67;9.33;;;7.20;99.90;;;;;;5052728;28;20260;-75
2022/01/23 09:17:07;;;;;;;17.50;9.97;;;7.10;99.90;;;;;;5043741;28;20268;-80
2022/01/23 09:19:33;;;;;;;16.27;10.30;;;7.30;99.90;;;;;;5041880;28;20177;-79
2022/01/23 09:22:01;;;;;;;19.00;10.40;;;7.30;99.90;;;;;;5041018;28;20251;-81
2022/01/23 09:24:30;;;;;;;17.30;10.03;;;7.40;99.90;;;;;;5046929;28;20197;-75
2022/01/23 09:27:02;;;;;;;16.30;10.27;;;7.40;99.90;;;;;;5041323;28;20188;-80
2022/01/23 09:29:42;;;;;;;16.83;10.13;;;7.50;99.90;;;;;;5026130;28;20181;-80
2022/01/23 09:32:14;;;;;;;17.57;9.60;;;7.60;99.90;;;;;;5042334;28;20253;-80
2022/01/23 09:34:42;;;;;;;18.40;9.53;;;7.60;99.90;;;;;;5043203;28;20188;-78
2022/01/23 09:37:13;;;;;;;17.70;10.67;;;7.50;99.90;;;;;;5015842;28;20180;-78
2022/01/23 09:39:42;;;;;;;16.80;10.53;;;7.50;99.90;;;;;;5030116;28;20200;-79
2022/01/23 09:42:22;;;;;;;15.63;9.57;;;7.50;99.90;;;;;;5040179;28;20210;-76
2022/01/23 09:44:52;;;;;;;21.67;10.70;;;7.40;99.90;;;;;;5008407;28;20201;-80
2022/01/23 09:47:20;;;;;;;15.80;9.40;;;7.40;99.90;;;;;;5039786;28;20655;-76
2022/01/23 09:49:47;;;;;;;20.03;10.63;;;7.40;99.90;;;;;;5039550;28;20162;-77
2022/01/23 09:52:14;;;;;;;17.10;10.60;;;7.30;99.90;;;;;;5037475;28;20546;-76
2022/01/23 09:54:46;;;;;;;19.37;9.93;;;7.30;99.90;;;;;;5031616;28;20207;-80
2022/01/23 09:59:55;;;;;;;20.37;11.27;;;7.40;99.90;;;;;;5043085;28;20676;-76
2022/01/23 10:02:23;;;;;;;18.90;10.63;;;7.40;99.90;;;;;;5039897;28;20599;-76
2022/01/23 10:04:53;;;;;;;18.70;11.10;;;7.40;99.90;;;;;;5027141;28;20173;-81
2022/01/23 10:07:20;;;;;;;21.50;11.63;;;7.50;99.90;;;;;;5045837;28;20208;-75
2022/01/23 10:09:53;;;;;;;17.07;9.63;;;7.50;99.90;;;;;;5029137;28;20169;-76
2022/01/23 10:12:20;;;;;;;16.17;9.50;;;7.30;99.90;;;;;;5045779;28;20184;-75
2022/01/23 10:14:46;;;;;;;17.10;9.20;;;7.60;99.90;;;;;;5041717;28;20490;-74
2022/01/23 10:17:12;;;;;;;14.77;8.77;;;7.40;99.90;;;;;;5026640;28;20213;-75
2022/01/23 10:19:39;;;;;;;15.73;9.90;;;7.60;99.90;;;;;;5011655;28;20243;-79
2022/01/23 10:22:06;;;;;;;16.67;9.80;;;7.70;99.90;;;;;;5035920;28;20613;-79
2022/01/23 10:24:32;;;;;;;15.70;10.07;;;7.60;99.90;;;;;;5040851;28;20174;-75
2022/01/23 10:27:01;;;;;;;16.00;10.33;;;7.70;99.90;;;;;;5045962;28;20625;-78
2022/01/23 10:29:32;;;;;;;19.03;10.57;;;7.60;99.90;;;;;;5045733;28;20184;-75
2022/01/23 10:32:07;;;;;;;15.13;9.37;;;7.30;99.90;;;;;;5046064;28;20272;-74
2022/01/23 10:35:15;;;;;;;14.00;9.07;;;7.60;99.90;;;;;;5045772;28;20232;-77
2022/01/23 10:37:42;;;;;;;10.77;7.20;;;7.80;99.90;;;;;;5050176;28;20286;-76
2022/01/23 10:40:31;;;;;;;15.63;8.70;;;7.80;99.90;;;;;;5029334;28;20239;-73
2022/01/23 10:48:26;;;;;;;12.57;7.67;;;7.70;99.90;;;;;;5046494;28;20740;-75
2022/01/23 10:51:11;;;;;;;13.67;8.67;;;7.80;99.90;;;;;;5046791;28;20208;-77
2022/01/23 10:54:09;;;;;;;14.03;8.63;;;7.80;99.90;;;;;;5034285;28;20251;-78
2022/01/23 10:56:40;;;;;;;14.40;8.70;;;7.80;99.90;;;;;;5026005;28;20652;-75
2022/01/23 10:59:11;;;;;;;15.13;9.37;;;7.80;99.90;;;;;;5009373;28;20684;-75
2022/01/23 11:02:05;;;;;;;13.70;9.07;;;7.70;99.90;;;;;;5026557;28;20245;-80
2022/01/23 11:04:34;;;;;;;18.23;9.63;;;7.40;99.90;;;;;;5028369;28;20225;-74
2022/01/23 11:07:03;;;;;;;16.90;9.27;;;7.60;99.90;;;;;;5041098;28;20888;-79
2022/01/23 11:09:32;;;;;;;13.33;9.10;;;7.70;99.90;;;;;;5037204;28;20190;-76
2022/01/23 11:12:02;;;;;;;16.17;9.67;;;7.60;99.90;;;;;;5037559;28;20294;-76
2022/01/23 11:17:26;;;;;;;12.33;8.17;;;7.50;99.90;;;;;;5028621;28;20189;-77
2022/01/23 11:20:00;;;;;;;14.30;8.87;;;7.50;99.90;;;;;;5011218;28;20269;-75
2022/01/23 11:22:29;;;;;;;15.03;9.97;;;7.80;99.90;;;;;;4994232;28;20498;-78
2022/01/23 11:25:04;;;;;;;13.13;8.60;;;7.70;99.90;;;;;;4981284;28;20209;-78
2022/01/23 11:27:33;;;;;;;16.57;9.57;;;7.60;99.90;;;;;;5025885;28;20595;-77
2022/01/23 11:30:07;;;;;;;16.50;9.17;;;7.60;99.90;;;;;;5012627;28;20661;-77
2022/01/23 11:32:40;;;;;;;16.83;10.10;;;7.60;99.90;;;;;;5011009;28;20178;-77
2022/01/23 11:35:14;;;;;;;15.40;9.33;;;7.60;99.90;;;;;;5030220;28;20174;-77
2022/01/23 11:37:51;;;;;;;16.37;9.30;;;7.10;99.90;;;;;;5013622;28;20180;-75
2022/01/23 11:54:01;;;;;;;14.37;8.70;;;7.90;99.90;;;;;;5008126;28;20716;-77
2022/01/23 11:59:01;;;;;;;14.53;9.07;;;7.90;99.90;;;;;;5030671;28;20783;-77
2022/01/23 12:01:27;;;;;;;14.40;8.43;;;7.90;99.90;;;;;;5029580;28;20213;-77
2022/01/23 12:04:17;;;;;;;13.30;7.70;;;7.90;99.90;;;;;;5030440;28;20213;-75
2022/01/23 12:06:45;;;;;;;11.23;7.23;;;7.80;99.90;;;;;;5029249;28;20254;-76
2022/01/23 12:09:11;;;;;;;12.67;8.50;;;7.90;99.90;;;;;;5027870;28;20262;-75
2022/01/23 12:11:46;;;;;;;12.57;7.27;;;7.90;99.90;;;;;;5018433;28;20619;-75
2022/01/23 12:16:57;;;;;;;11.03;7.37;;;8.00;99.90;;;;;;5021100;28;20289;-78
2022/01/23 12:19:28;;;;;;;11.77;6.80;;;8.10;99.90;;;;;;4998853;28;20285;-76
2022/01/23 12:21:58;;;;;;;10.73;6.67;;;8.00;99.90;;;;;;5012732;28;20736;-78
2022/01/23 12:24:25;;;;;;;9.50;6.27;;;8.00;99.90;;;;;;5014117;28;20182;-75
2022/01/23 12:27:13;;;;;;;12.63;7.30;;;7.90;99.90;;;;;;5013719;28;20527;-75
2022/01/23 12:29:39;;;;;;;11.67;6.77;;;8.00;99.90;;;;;;5013770;28;20695;-75
2022/01/23 12:32:18;;;;;;;14.53;7.07;;;7.60;99.90;;;;;;5045337;28;20185;-79
2022/01/23 12:34:51;;;;;;;9.40;6.73;;;7.60;99.90;;;;;;5025997;28;20194;-77
2022/01/23 12:37:17;;;;;;;9.60;7.00;;;7.80;99.90;;;;;;5007623;28;20177;-75
2022/01/23 12:39:43;;;;;;;9.87;6.07;;;7.50;99.90;;;;;;5010163;28;20214;-76
2022/01/23 12:42:09;;;;;;;12.87;7.03;;;7.60;99.90;;;;;;5029783;28;20293;-76
2022/01/23 12:44:37;;;;;;;9.50;6.10;;;7.90;99.90;;;;;;5013442;28;20186;-77
2022/01/23 12:47:18;;;;;;;9.50;6.30;;;8.00;99.90;;;;;;5019460;28;20178;-77
2022/01/23 12:49:50;;;;;;;7.73;6.37;;;8.10;99.90;;;;;;5012450;28;20196;-76
2022/01/23 12:52:21;;;;;;;11.77;6.13;;;7.90;99.90;;;;;;5028421;28;20652;-77
2022/01/23 12:54:50;;;;;;;8.10;5.43;;;8.00;99.90;;;;;;5031515;28;20201;-75
2022/01/23 12:57:35;;;;;;;8.33;5.67;;;8.20;99.90;;;;;;5029580;28;20169;-77
2022/01/23 13:00:26;;;;;;;8.13;6.07;;;8.20;99.90;;;;;;5031301;28;20165;-76
2022/01/23 13:02:53;;;;;;;9.10;5.50;;;8.20;99.90;;;;;;5030540;28;20659;-76
2022/01/23 13:05:20;;;;;;;10.23;5.83;;;8.20;99.90;;;;;;4997242;28;20184;-76
2022/01/23 13:10:49;;;;;;;8.70;5.87;;;8.00;99.90;;;;;;5013756;28;20170;-76
2022/01/23 13:13:57;;;;;;;10.37;5.97;;;8.20;99.90;;;;;;5029188;28;20688;-75
2022/01/23 13:18:47;;;;;;;11.73;6.93;;;7.90;99.90;;;;;;5030836;28;20217;-76
2022/01/23 13:35:13;;;;;;;4.83;3.40;;;8.00;99.90;;;;;;5027227;28;20268;-75
2022/01/23 13:37:41;;;;;;;5.67;3.50;;;7.80;99.90;;;;;;5005823;28;20183;-75
2022/01/23 13:40:08;;;;;;;6.27;3.57;;;7.90;99.90;;;;;;5024582;28;20179;-75
2022/01/23 13:54:17;;;;;;;2.17;1.40;;;7.90;99.90;;;;;;5025206;28;20235;-79
2022/01/23 13:59:33;;;;;;;2.50;1.60;;;8.10;99.90;;;;;;5021339;28;20202;-75
2022/01/23 14:02:17;;;;;;;3.60;2.10;;;8.20;99.90;;;;;;5011210;28;20175;-77
2022/01/23 14:05:08;;;;;;;10.03;4.30;;;8.10;99.90;;;;;;5024194;28;20265;-77
2022/01/23 14:07:35;;;;;;;4.80;2.43;;;8.10;99.90;;;;;;5018438;28;20265;-77
2022/01/23 14:10:16;;;;;;;4.50;2.20;;;8.10;99.90;;;;;;5024499;28;20742;-78
2022/01/23 14:12:43;;;;;;;3.50;2.50;;;8.00;99.90;;;;;;5011166;28;20273;-75
2022/01/23 14:15:14;;;;;;;3.17;2.20;;;8.10;99.90;;;;;;5028866;28;20269;-77
2022/01/23 14:17:42;;;;;;;3.20;2.07;;;8.20;99.90;;;;;;5009860;28;20658;-77
2022/01/23 14:20:16;;;;;;;3.20;2.00;;;8.20;99.90;;;;;;5004097;28;20193;-78
2022/01/23 14:22:47;;;;;;;2.83;1.83;;;8.20;99.90;;;;;;5014996;28;20181;-75
2022/01/23 14:25:16;;;;;;;2.70;1.87;;;8.00;99.90;;;;;;5023594;28;20170;-76
2022/01/23 14:27:45;;;;;;;2.90;1.87;;;8.10;99.90;;;;;;5021956;28;20224;-75
2022/01/23 14:30:15;;;;;;;2.87;2.03;;;8.30;99.90;;;;;;5023499;28;20688;-75
2022/01/23 14:32:50;;;;;;;3.60;2.30;;;8.20;99.90;;;;;;5025938;28;20173;-79
2022/01/23 14:35:26;;;;;;;3.20;1.93;;;8.10;99.90;;;;;;5019903;28;20186;-75
2022/01/23 14:37:53;;;;;;;1.87;1.40;;;8.00;99.90;;;;;;5007541;28;20188;-75
2022/01/23 14:40:28;;;;;;;2.17;1.97;;;7.90;99.90;;;;;;5001927;28;20233;-80
2022/01/23 14:43:03;;;;;;;3.17;1.70;;;7.90;99.90;;;;;;5018944;28;20177;-77
2022/01/23 14:45:31;;;;;;;2.90;1.93;;;7.80;99.90;;;;;;4988166;28;20934;-81
2022/01/23 14:47:58;;;;;;;2.63;1.70;;;7.80;99.90;;;;;;5011983;28;20529;-76
2022/01/23 14:50:26;;;;;;;3.17;1.53;;;7.80;99.90;;;;;;5030381;28;20181;-76
2022/01/23 14:52:52;;;;;;;3.60;2.07;;;8.00;99.90;;;;;;5012742;28;20182;-75
2022/01/23 14:55:20;;;;;;;2.10;1.47;;;8.00;99.90;;;;;;5012075;28;20646;-77
2022/01/23 14:57:46;;;;;;;3.00;1.80;;;8.00;99.90;;;;;;5022341;28;20577;-78
2022/01/23 15:00:13;;;;;;;3.93;2.53;;;7.90;99.90;;;;;;5030259;28;20236;-78
2022/01/23 15:02:41;;;;;;;2.43;1.77;;;7.90;99.90;;;;;;5026202;28;20182;-79
2022/01/23 15:05:07;;;;;;;3.43;1.93;;;7.90;99.90;;;;;;5027250;28;20240;-76
2022/01/23 15:07:40;;;;;;;2.17;1.70;;;7.80;99.90;;;;;;5029412;28;20166;-81
2022/01/23 15:10:07;;;;;;;2.53;1.77;;;7.90;99.90;;;;;;5009281;28;20178;-80
2022/01/23 15:12:34;;;;;;;2.53;2.07;;;7.80;99.90;;;;;;5008241;28;20231;-78
2022/01/23 15:15:00;;;;;;;2.63;1.77;;;7.80;99.90;;;;;;5015680;28;20221;-78
2022/01/23 15:17:27;;;;;;;2.10;1.73;;;7.80;99.90;;;;;;5033264;28;20194;-78
2022/01/23 15:19:53;;;;;;;2.70;2.00;;;7.90;99.90;;;;;;5015394;28;20208;-75
2022/01/23 15:22:20;;;;;;;2.67;1.83;;;7.70;99.90;;;;;;5017837;28;20264;-76
2022/01/23 15:24:47;;;;;;;3.20;2.27;;;7.80;99.90;;;;;;5005591;28;20183;-76
2022/01/23 15:27:14;;;;;;;2.87;1.90;;;7.70;99.90;;;;;;5018061;28;20183;-75
2022/01/23 15:29:40;;;;;;;2.83;1.90;;;7.40;99.90;;;;;;5011169;28;20265;-75
2022/01/23 15:32:07;;;;;;;2.47;1.60;;;7.60;99.90;;;;;;5020970;28;20182;-76
2022/01/23 15:34:35;;;;;;;2.80;1.87;;;7.60;99.90;;;;;;5005611;28;20266;-76
2022/01/23 15:37:05;;;;;;;4.60;2.10;;;7.60;99.90;;;;;;4997427;28;20178;-78
2022/01/23 15:39:31;;;;;;;2.93;2.17;;;7.60;99.90;;;;;;4978703;28;20210;-78
2022/01/23 15:41:58;;;;;;;2.97;2.40;;;7.70;99.90;;;;;;5028597;28;20253;-78
2022/01/23 15:44:26;;;;;;;3.33;2.10;;;7.80;99.90;;;;;;5013634;28;20540;-77
2022/01/23 15:46:53;;;;;;;3.77;2.40;;;7.70;99.90;;;;;;5011633;28;20175;-79
2022/01/23 15:49:20;;;;;;;2.97;2.10;;;7.50;99.90;;;;;;4979329;28;20242;-76
2022/01/23 15:51:47;;;;;;;6.40;3.77;;;7.40;99.90;;;;;;5006752;28;20276;-81
2022/01/23 15:54:19;;;;;;;3.10;2.40;;;7.60;99.90;;;;;;5012561;28;20182;-79
2022/01/23 15:56:47;;;;;;;3.40;2.47;;;7.60;99.90;;;;;;4998759;28;20182;-76
2022/01/23 15:59:14;;;;;;;4.90;2.87;;;7.70;99.90;;;;;;5024026;28;20209;-81
2022/01/23 16:01:42;;;;;;;4.60;2.60;;;7.70;99.90;;;;;;5012237;28;20185;-80
2022/01/23 16:04:08;;;;;;;3.93;2.27;;;7.70;99.90;;;;;;4998747;28;20178;-78
2022/01/23 16:06:34;;;;;;;3.17;2.40;;;7.80;99.90;;;;;;4998446;28;20169;-76
2022/01/23 16:09:00;;;;;;;4.10;2.67;;;7.70;99.90;;;;;;4993798;28;20194;-79
2022/01/23 16:11:26;;;;;;;4.40;2.80;;;7.70;99.90;;;;;;4977949;28;20178;-77
2022/01/23 16:13:52;;;;;;;4.33;2.43;;;7.70;99.90;;;;;;4978173;28;20182;-76
2022/01/23 16:16:18;;;;;;;4.47;2.40;;;7.80;99.90;;;;;;5012500;28;20256;-76
2022/01/23 16:18:43;;;;;;;3.90;2.33;;;7.60;99.90;;;;;;4962364;28;20252;-76
2022/01/23 16:21:10;;;;;;;3.77;3.00;;;7.50;99.90;;;;;;5012157;28;20694;-78
2022/01/23 16:23:36;;;;;;;8.03;4.73;;;7.60;99.90;;;;;;4994460;28;20708;-78
2022/01/23 16:26:03;;;;;;;3.23;2.40;;;7.70;99.90;;;;;;5012985;28;20178;-75
2022/01/23 16:28:29;;;;;;;4.13;2.67;;;7.60;99.90;;;;;;4998703;28;20170;-81
2022/01/23 16:30:58;;;;;;;3.93;2.47;;;7.70;99.90;;;;;;5031023;28;20224;-75
2022/01/23 16:33:24;;;;;;;3.67;2.40;;;7.70;99.90;;;;;;4998243;28;20665;-75
2022/01/23 16:35:51;;;;;;;2.70;2.07;;;7.70;99.90;;;;;;4994365;28;20293;-79
2022/01/23 16:38:17;;;;;;;3.20;2.03;;;7.70;99.90;;;;;;5005411;28;20289;-77
2022/01/23 16:40:44;;;;;;;3.70;2.60;;;7.40;99.90;;;;;;5028450;28;20286;-78
2022/01/23 16:43:14;;;;;;;5.07;2.20;;;7.40;99.90;;;;;;4993852;28;20247;-77
2022/01/23 16:45:40;;;;;;;3.70;1.90;;;7.60;99.90;;;;;;5004949;28;20178;-80
2022/01/23 16:48:07;;;;;;;4.53;2.57;;;7.60;99.90;;;;;;4997476;28;20216;-79
2022/01/23 16:50:35;;;;;;;3.27;2.00;;;7.60;99.90;;;;;;5026563;28;20178;-79
2022/01/23 16:53:01;;;;;;;3.03;1.60;;;7.60;99.90;;;;;;5007814;28;20197;-76
2022/01/23 16:55:27;;;;;;;3.73;2.10;;;7.50;99.90;;;;;;5009488;28;20241;-77
2022/01/23 16:57:53;;;;;;;3.27;2.10;;;7.60;99.90;;;;;;5002953;28;20194;-77